Time;durP1;ratioP1;P1;durP2;ratioP2;P2;SDS_P1;SDS_P2;PMS_P1;PMS_P2;Temp;Humidity;BMP_temperature;BMP_pressure;BME280_temperature;BME280_humidity;BME280_pressure;Samples;Min_cycle;Max_cycle;Signal;HPM_P1;HPM_P2
2024/01/17 00:02:02;;;;;;;9.57;2.28;;;;;;;;;;5006266;28;20034;-38
2024/01/17 00:04:29;;;;;;;14.50;2.30;;;;;;;;;;5011784;28;20034;-37
2024/01/17 00:06:56;;;;;;;8.80;2.28;;;;;;;;;;5011907;28;20030;-37
2024/01/17 00:09:24;;;;;;;14.02;2.13;;;;;;;;;;5011649;28;20061;-37
2024/01/17 00:11:51;;;;;;;7.50;2.05;;;;;;;;;;5011625;28;20547;-38
2024/01/17 00:14:18;;;;;;;7.65;1.90;;;;;;;;;;5005206;28;20109;-37
2024/01/17 00:16:45;;;;;;;14.30;2.58;;;;;;;;;;5005052;28;20033;-39
2024/01/17 00:19:12;;;;;;;8.93;2.30;;;;;;;;;;5011561;28;20091;-37
2024/01/17 00:21:39;;;;;;;7.22;2.15;;;;;;;;;;5011680;28;20040;-38
2024/01/17 00:24:06;;;;;;;10.50;2.35;;;;;;;;;;5011436;28;20025;-38
2024/01/17 00:26:33;;;;;;;8.38;2.30;;;;;;;;;;5011559;28;20046;-37
2024/01/17 00:29:03;;;;;;;8.90;2.55;;;;;;;;;;4997240;28;20057;-36
2024/01/17 00:31:30;;;;;;;12.48;2.40;;;;;;;;;;5005293;28;20098;-40
2024/01/17 00:33:57;;;;;;;8.15;1.90;;;;;;;;;;5011619;28;20038;-36
2024/01/17 00:36:24;;;;;;;6.90;2.10;;;;;;;;;;5011540;28;20054;-36
2024/01/17 00:38:51;;;;;;;8.50;2.90;;;;;;;;;;5011541;28;20022;-36
2024/01/17 00:41:18;;;;;;;7.97;2.45;;;;;;;;;;5014332;28;20040;-37
2024/01/17 00:43:45;;;;;;;8.95;2.50;;;;;;;;;;5009542;28;20073;-37
2024/01/17 00:46:12;;;;;;;8.45;2.22;;;;;;;;;;5005673;28;20125;-38
2024/01/17 00:48:39;;;;;;;12.43;2.63;;;;;;;;;;5015473;28;20018;-38
2024/01/17 00:51:06;;;;;;;6.97;2.20;;;;;;;;;;5015005;28;20033;-38
2024/01/17 00:53:33;;;;;;;10.63;2.65;;;;;;;;;;5015395;28;20552;-38
2024/01/17 00:56:00;;;;;;;13.40;2.80;;;;;;;;;;5013685;28;20022;-37
2024/01/17 00:58:27;;;;;;;11.68;2.85;;;;;;;;;;5015229;28;20365;-38
2024/01/17 01:00:54;;;;;;;8.15;2.20;;;;;;;;;;5014992;28;20367;-37
2024/01/17 01:03:21;;;;;;;10.02;2.40;;;;;;;;;;5000431;28;20506;-37
2024/01/17 01:05:48;;;;;;;6.95;1.92;;;;;;;;;;5012075;28;20030;-37
2024/01/17 01:08:15;;;;;;;7.38;2.00;;;;;;;;;;5014789;28;20391;-41
2024/01/17 01:10:42;;;;;;;15.30;2.47;;;;;;;;;;5011577;28;20045;-41
2024/01/17 01:13:09;;;;;;;12.38;3.15;;;;;;;;;;5001593;28;20034;-39
2024/01/17 01:15:36;;;;;;;41.83;4.72;;;;;;;;;;4999204;28;20030;-38
2024/01/17 01:18:03;;;;;;;32.03;4.38;;;;;;;;;;5004478;28;20041;-40
2024/01/17 01:20:30;;;;;;;30.98;4.35;;;;;;;;;;5009471;28;20053;-39
2024/01/17 01:22:57;;;;;;;19.95;3.33;;;;;;;;;;4994937;28;20038;-38
2024/01/17 01:25:25;;;;;;;23.70;3.22;;;;;;;;;;5004979;28;20030;-39
2024/01/17 01:27:52;;;;;;;28.55;2.85;;;;;;;;;;5005446;28;20069;-41
2024/01/17 01:30:19;;;;;;;24.10;2.63;;;;;;;;;;4997003;28;20129;-39
2024/01/17 01:32:49;;;;;;;14.88;2.45;;;;;;;;;;5005402;28;20030;-39
2024/01/17 01:35:16;;;;;;;14.50;2.72;;;;;;;;;;5008454;28;20125;-36
2024/01/17 01:37:43;;;;;;;13.60;2.45;;;;;;;;;;5011042;28;20073;-37
2024/01/17 01:40:11;;;;;;;17.83;2.95;;;;;;;;;;5013751;28;20021;-39
2024/01/17 01:42:38;;;;;;;14.38;2.83;;;;;;;;;;5014149;28;20034;-38
2024/01/17 01:45:05;;;;;;;22.25;2.60;;;;;;;;;;5001429;28;20030;-36
2024/01/17 01:47:32;;;;;;;23.70;2.47;;;;;;;;;;5005586;28;20076;-36
2024/01/17 01:49:59;;;;;;;33.90;2.40;;;;;;;;;;5013620;28;20029;-36
2024/01/17 01:52:27;;;;;;;17.75;2.40;;;;;;;;;;5013102;28;20037;-37
2024/01/17 01:54:55;;;;;;;65.45;6.15;;;;;;;;;;5013722;28;20041;-36
2024/01/17 01:57:24;;;;;;;43.97;4.53;;;;;;;;;;5013920;28;20033;-36
2024/01/17 01:59:51;;;;;;;39.95;5.35;;;;;;;;;;5013686;28;20116;-36
2024/01/17 02:02:18;;;;;;;82.57;10.73;;;;;;;;;;5013806;28;20026;-36
2024/01/17 02:04:45;;;;;;;94.47;12.75;;;;;;;;;;5013748;28;20040;-36
2024/01/17 02:07:14;;;;;;;68.07;11.10;;;;;;;;;;5013738;28;20065;-36
2024/01/17 02:09:41;;;;;;;44.97;7.45;;;;;;;;;;4995874;28;20761;-36
2024/01/17 02:12:08;;;;;;;45.05;7.82;;;;;;;;;;4995696;28;20034;-36
2024/01/17 02:14:36;;;;;;;44.75;6.70;;;;;;;;;;5008948;28;20118;-36
2024/01/17 02:17:03;;;;;;;39.50;6.13;;;;;;;;;;5007202;28;20061;-38
2024/01/17 02:19:30;;;;;;;30.00;4.82;;;;;;;;;;4994801;28;20050;-36
2024/01/17 02:21:57;;;;;;;28.23;4.40;;;;;;;;;;4995668;28;20053;-36
2024/01/17 02:24:24;;;;;;;24.52;3.72;;;;;;;;;;5004227;28;20021;-36
2024/01/17 02:26:51;;;;;;;19.33;2.85;;;;;;;;;;5007529;28;20504;-37
2024/01/17 02:29:18;;;;;;;19.98;2.40;;;;;;;;;;5012906;28;20049;-36
2024/01/17 02:31:45;;;;;;;24.52;2.90;;;;;;;;;;5003270;28;20031;-36
2024/01/17 02:34:12;;;;;;;17.40;2.63;;;;;;;;;;4999970;28;20038;-37
2024/01/17 02:36:39;;;;;;;18.70;2.95;;;;;;;;;;5007765;28;20032;-38
2024/01/17 02:39:06;;;;;;;24.70;2.17;;;;;;;;;;5004101;28;20119;-38
2024/01/17 02:41:33;;;;;;;7.95;1.73;;;;;;;;;;5005801;28;20059;-40
2024/01/17 02:44:00;;;;;;;22.08;1.80;;;;;;;;;;5004362;28;20088;-41
2024/01/17 02:46:29;;;;;;;11.45;1.85;;;;;;;;;;5009511;28;20033;-41
2024/01/17 02:48:56;;;;;;;14.57;2.20;;;;;;;;;;5009758;28;20037;-43
2024/01/17 02:51:23;;;;;;;21.25;2.55;;;;;;;;;;5012662;28;20447;-40
2024/01/17 02:53:50;;;;;;;17.42;1.95;;;;;;;;;;5012510;28;20044;-39
2024/01/17 02:56:17;;;;;;;9.18;1.65;;;;;;;;;;5012648;28;20096;-39
2024/01/17 02:58:45;;;;;;;13.68;1.20;;;;;;;;;;5012825;28;20038;-41
2024/01/17 03:01:14;;;;;;;8.05;1.30;;;;;;;;;;5009552;28;20469;-42
2024/01/17 03:03:41;;;;;;;11.25;1.50;;;;;;;;;;5001939;28;20507;-40
2024/01/17 03:06:08;;;;;;;15.35;2.13;;;;;;;;;;5009850;28;20034;-39
2024/01/17 03:08:35;;;;;;;28.40;3.17;;;;;;;;;;5009032;28;20427;-39
2024/01/17 03:11:03;;;;;;;25.88;2.55;;;;;;;;;;5011843;28;20498;-40
2024/01/17 03:13:30;;;;;;;16.45;1.95;;;;;;;;;;5012270;28;20065;-42
2024/01/17 03:15:57;;;;;;;17.83;1.88;;;;;;;;;;4997654;28;20060;-43
2024/01/17 03:18:24;;;;;;;16.90;1.50;;;;;;;;;;5004979;28;20045;-41
2024/01/17 03:20:51;;;;;;;15.52;2.13;;;;;;;;;;5012232;28;20025;-41
2024/01/17 03:23:19;;;;;;;16.75;1.80;;;;;;;;;;5010202;28;20506;-43
2024/01/17 03:25:46;;;;;;;11.40;1.65;;;;;;;;;;4994387;28;20095;-42
2024/01/17 03:28:13;;;;;;;18.45;1.50;;;;;;;;;;4987754;28;20055;-38
2024/01/17 03:30:41;;;;;;;8.20;1.58;;;;;;;;;;4989179;28;20090;-38
2024/01/17 03:33:08;;;;;;;12.30;1.38;;;;;;;;;;4979130;28;20409;-37
2024/01/17 03:35:35;;;;;;;15.07;1.25;;;;;;;;;;4987690;28;20034;-39
2024/01/17 03:38:02;;;;;;;24.00;2.28;;;;;;;;;;4974292;28;20690;-40
2024/01/17 03:40:29;;;;;;;29.75;2.42;;;;;;;;;;4988926;28;20412;-40
2024/01/17 03:42:57;;;;;;;24.75;3.00;;;;;;;;;;4990787;28;20030;-41
2024/01/17 03:45:24;;;;;;;24.42;3.75;;;;;;;;;;4992188;28;20144;-40
2024/01/17 03:47:51;;;;;;;17.13;3.92;;;;;;;;;;4992222;28;20476;-42
2024/01/17 03:50:18;;;;;;;14.65;3.45;;;;;;;;;;4989412;28;20050;-38
2024/01/17 03:52:45;;;;;;;18.95;3.00;;;;;;;;;;4984656;28;20038;-38
2024/01/17 03:55:13;;;;;;;14.38;2.75;;;;;;;;;;4990689;28;20501;-39
2024/01/17 03:57:40;;;;;;;15.82;2.47;;;;;;;;;;4990838;28;20030;-38
2024/01/17 04:00:10;;;;;;;10.15;2.13;;;;;;;;;;4989290;28;20510;-38
2024/01/17 04:02:37;;;;;;;10.73;2.38;;;;;;;;;;4987776;28;20045;-39
2024/01/17 04:05:04;;;;;;;28.15;2.47;;;;;;;;;;4990674;28;20034;-37
2024/01/17 04:07:31;;;;;;;10.13;2.35;;;;;;;;;;4991065;28;20030;-39
2024/01/17 04:09:58;;;;;;;8.73;1.85;;;;;;;;;;4989216;28;20133;-40
2024/01/17 04:12:25;;;;;;;5.70;1.55;;;;;;;;;;4991316;28;20028;-38
2024/01/17 04:14:52;;;;;;;9.50;1.65;;;;;;;;;;4989951;28;20026;-38
2024/01/17 04:17:19;;;;;;;12.48;1.65;;;;;;;;;;4991295;28;20034;-42
2024/01/17 04:19:46;;;;;;;11.60;1.83;;;;;;;;;;4991424;28;20575;-41
2024/01/17 04:22:14;;;;;;;12.68;1.40;;;;;;;;;;4991177;28;20365;-38
2024/01/17 04:24:41;;;;;;;6.32;0.90;;;;;;;;;;4992241;28;20038;-38
2024/01/17 04:27:07;;;;;;;7.82;1.25;;;;;;;;;;4999407;28;20046;-39
2024/01/17 04:29:35;;;;;;;4.53;1.00;;;;;;;;;;5011100;28;20095;-38
2024/01/17 04:32:02;;;;;;;12.45;1.27;;;;;;;;;;5011354;28;20045;-38
2024/01/17 04:34:29;;;;;;;9.27;1.27;;;;;;;;;;5011703;28;20105;-38
2024/01/17 04:36:56;;;;;;;6.63;1.10;;;;;;;;;;5011822;28;20079;-39
2024/01/17 04:39:24;;;;;;;6.20;0.77;;;;;;;;;;5011703;28;20037;-38
2024/01/17 04:41:51;;;;;;;11.23;1.17;;;;;;;;;;5011449;28;20038;-38
2024/01/17 04:44:18;;;;;;;9.52;1.05;;;;;;;;;;5011555;28;20026;-38
2024/01/17 04:46:46;;;;;;;11.25;1.00;;;;;;;;;;5011577;28;20037;-38
2024/01/17 04:49:13;;;;;;;7.30;0.88;;;;;;;;;;5011531;28;20038;-38
2024/01/17 04:51:41;;;;;;;4.00;0.60;;;;;;;;;;5011553;28;20033;-38
2024/01/17 04:54:08;;;;;;;4.95;0.95;;;;;;;;;;5011502;28;20033;-38
2024/01/17 04:56:35;;;;;;;4.10;0.60;;;;;;;;;;4994008;28;20041;-38
2024/01/17 04:59:02;;;;;;;4.40;0.85;;;;;;;;;;5011441;28;20033;-38
2024/01/17 05:01:29;;;;;;;4.28;0.60;;;;;;;;;;5011592;28;20022;-38
2024/01/17 05:03:57;;;;;;;3.47;0.98;;;;;;;;;;5011458;28;20064;-38
2024/01/17 05:06:24;;;;;;;6.75;0.98;;;;;;;;;;4993872;28;20093;-38
2024/01/17 05:08:51;;;;;;;8.20;0.82;;;;;;;;;;5011361;28;20037;-38
2024/01/17 05:11:22;;;;;;;4.68;0.75;;;;;;;;;;5011215;28;20030;-38
2024/01/17 05:13:49;;;;;;;4.20;0.70;;;;;;;;;;5011579;28;20113;-38
2024/01/17 05:16:16;;;;;;;1.88;0.50;;;;;;;;;;5011470;28;20030;-38
2024/01/17 05:18:43;;;;;;;4.97;0.70;;;;;;;;;;5011522;28;20026;-38
2024/01/17 05:21:10;;;;;;;2.65;0.80;;;;;;;;;;5011387;28;20032;-38
2024/01/17 05:23:40;;;;;;;2.72;0.70;;;;;;;;;;5011449;28;20026;-38
2024/01/17 05:26:07;;;;;;;4.40;0.80;;;;;;;;;;5011192;28;20041;-38
2024/01/17 05:28:34;;;;;;;3.55;0.75;;;;;;;;;;5014629;28;20022;-38
2024/01/17 05:31:01;;;;;;;4.38;0.77;;;;;;;;;;5014710;28;20053;-38
2024/01/17 05:33:28;;;;;;;1.83;0.60;;;;;;;;;;5014892;28;20447;-38
2024/01/17 05:35:55;;;;;;;4.55;0.90;;;;;;;;;;5014871;28;20018;-38
2024/01/17 05:38:22;;;;;;;6.05;0.70;;;;;;;;;;5014811;28;20124;-38
2024/01/17 05:40:48;;;;;;;5.40;0.80;;;;;;;;;;5014655;28;20124;-38
2024/01/17 05:43:15;;;;;;;4.75;0.60;;;;;;;;;;5014756;28;20030;-38
2024/01/17 05:46:02;;;;;;;5.05;0.80;;;;;;;;;;5014757;28;20037;-38
2024/01/17 05:48:29;;;;;;;4.55;0.82;;;;;;;;;;5011938;28;20393;-38
2024/01/17 05:50:56;;;;;;;2.35;0.82;;;;;;;;;;5014367;28;20042;-38
2024/01/17 05:53:23;;;;;;;6.50;0.70;;;;;;;;;;5014406;28;20034;-38
2024/01/17 05:55:52;;;;;;;7.13;0.80;;;;;;;;;;5014358;28;20396;-38
2024/01/17 05:58:19;;;;;;;3.47;0.70;;;;;;;;;;5014311;28;20030;-38
2024/01/17 06:00:46;;;;;;;4.70;0.80;;;;;;;;;;5013183;28;20091;-39
2024/01/17 06:03:14;;;;;;;6.35;0.82;;;;;;;;;;5013965;28;20644;-38
2024/01/17 06:05:41;;;;;;;4.43;0.60;;;;;;;;;;5014231;28;20045;-38
2024/01/17 06:08:08;;;;;;;4.68;0.60;;;;;;;;;;5014215;28;20472;-38
2024/01/17 06:10:37;;;;;;;3.20;0.95;;;;;;;;;;5013963;28;20046;-38
2024/01/17 06:13:05;;;;;;;4.75;0.60;;;;;;;;;;5014138;28;20488;-38
2024/01/17 06:15:32;;;;;;;2.08;0.50;;;;;;;;;;5014115;28;20079;-39
2024/01/17 06:18:00;;;;;;;0.85;0.60;;;;;;;;;;5014025;28;20026;-38
2024/01/17 06:20:27;;;;;;;1.70;0.60;;;;;;;;;;5013929;28;20041;-39
2024/01/17 06:22:54;;;;;;;4.00;0.60;;;;;;;;;;5014058;28;20076;-38
2024/01/17 06:25:21;;;;;;;1.23;0.63;;;;;;;;;;5013891;28;20049;-38
2024/01/17 06:27:47;;;;;;;2.50;0.52;;;;;;;;;;5013681;28;20042;-38
2024/01/17 06:30:14;;;;;;;3.35;0.60;;;;;;;;;;5013718;28;20040;-38
2024/01/17 06:32:42;;;;;;;3.25;0.65;;;;;;;;;;5013825;28;20026;-38
2024/01/17 06:35:12;;;;;;;3.80;0.63;;;;;;;;;;5013638;28;20044;-38
2024/01/17 06:37:39;;;;;;;4.15;0.60;;;;;;;;;;5013098;28;20037;-38
2024/01/17 06:40:07;;;;;;;3.97;0.60;;;;;;;;;;5013468;28;20650;-38
2024/01/17 06:42:34;;;;;;;4.97;0.68;;;;;;;;;;5013760;28;20030;-39
2024/01/17 06:45:01;;;;;;;1.58;0.60;;;;;;;;;;5013597;28;20048;-38
2024/01/17 06:47:28;;;;;;;6.07;0.75;;;;;;;;;;5013404;28;20022;-38
2024/01/17 06:49:55;;;;;;;2.33;0.60;;;;;;;;;;5013308;28;20026;-38
2024/01/17 06:52:22;;;;;;;6.70;0.73;;;;;;;;;;5013365;28;20563;-38
2024/01/17 06:54:49;;;;;;;1.50;0.50;;;;;;;;;;5013484;28;20033;-38
2024/01/17 06:57:17;;;;;;;2.65;0.77;;;;;;;;;;5013315;28;20042;-38
2024/01/17 06:59:44;;;;;;;3.17;0.63;;;;;;;;;;5013229;28;20037;-38
2024/01/17 07:02:11;;;;;;;2.17;0.70;;;;;;;;;;5013335;28;20026;-38
2024/01/17 07:04:40;;;;;;;2.22;0.45;;;;;;;;;;5013155;28;20427;-38
2024/01/17 07:07:07;;;;;;;2.65;0.70;;;;;;;;;;5013108;28;20042;-38
2024/01/17 07:09:34;;;;;;;6.88;0.90;;;;;;;;;;5012964;28;20515;-38
2024/01/17 07:12:02;;;;;;;5.35;0.70;;;;;;;;;;5013287;28;20034;-38
2024/01/17 07:14:29;;;;;;;7.72;1.00;;;;;;;;;;5013062;28;20045;-38
2024/01/17 07:16:56;;;;;;;7.07;1.80;;;;;;;;;;5012878;28;20026;-38
2024/01/17 07:19:23;;;;;;;6.40;2.65;;;;;;;;;;5012745;28;20044;-38
2024/01/17 07:21:49;;;;;;;6.60;2.10;;;;;;;;;;5012863;28;20148;-38
2024/01/17 07:24:17;;;;;;;4.38;1.40;;;;;;;;;;5012776;28;20049;-39
2024/01/17 07:26:44;;;;;;;2.63;1.13;;;;;;;;;;5012629;28;20053;-38
2024/01/17 07:29:11;;;;;;;4.20;1.33;;;;;;;;;;5012493;28;20032;-38
2024/01/17 07:31:38;;;;;;;4.63;1.30;;;;;;;;;;5012693;28;20022;-38
2024/01/17 07:34:05;;;;;;;5.32;1.73;;;;;;;;;;5012618;28;20034;-38
2024/01/17 07:36:32;;;;;;;8.25;1.70;;;;;;;;;;5012571;28;20033;-38
2024/01/17 07:38:59;;;;;;;7.78;1.30;;;;;;;;;;5012524;28;20025;-38
2024/01/17 07:41:26;;;;;;;7.15;1.20;;;;;;;;;;5012499;28;20030;-38
2024/01/17 07:43:53;;;;;;;14.15;1.67;;;;;;;;;;5012538;28;20026;-38
2024/01/17 07:46:23;;;;;;;17.23;2.30;;;;;;;;;;5012491;28;20034;-38
2024/01/17 07:48:51;;;;;;;25.85;3.05;;;;;;;;;;5012126;28;20034;-38
2024/01/17 07:51:18;;;;;;;13.73;1.98;;;;;;;;;;5011820;28;20038;-38
2024/01/17 07:53:46;;;;;;;10.90;1.55;;;;;;;;;;5012338;28;20042;-38
2024/01/17 07:56:13;;;;;;;7.50;1.40;;;;;;;;;;5012286;28;20519;-38
2024/01/17 07:58:40;;;;;;;6.53;1.35;;;;;;;;;;5012220;28;20092;-38
2024/01/17 08:01:07;;;;;;;9.13;1.17;;;;;;;;;;5012177;28;20026;-38
2024/01/17 08:03:34;;;;;;;10.93;1.30;;;;;;;;;;5012196;28;20044;-38
2024/01/17 08:06:02;;;;;;;7.32;1.30;;;;;;;;;;5012201;28;20395;-38
2024/01/17 08:08:29;;;;;;;9.52;1.33;;;;;;;;;;5011954;28;20037;-38
2024/01/17 08:10:57;;;;;;;9.57;1.35;;;;;;;;;;5011896;28;20121;-38
2024/01/17 08:13:23;;;;;;;5.30;1.27;;;;;;;;;;5012078;28;20614;-38
2024/01/17 08:15:50;;;;;;;13.25;1.70;;;;;;;;;;5012025;28;20030;-38
2024/01/17 08:18:17;;;;;;;16.02;2.30;;;;;;;;;;5012030;28;20029;-38
2024/01/17 08:20:44;;;;;;;7.32;1.63;;;;;;;;;;5011738;28;20033;-38
2024/01/17 08:23:11;;;;;;;6.03;1.27;;;;;;;;;;5011942;28;20037;-38
2024/01/17 08:25:38;;;;;;;10.15;1.50;;;;;;;;;;5011737;28;20022;-37
2024/01/17 08:28:05;;;;;;;6.70;1.02;;;;;;;;;;5011722;28;20419;-38
2024/01/17 08:30:32;;;;;;;8.57;1.17;;;;;;;;;;5011455;28;20073;-38
2024/01/17 08:32:59;;;;;;;8.65;1.10;;;;;;;;;;5011952;28;20124;-38
2024/01/17 08:35:26;;;;;;;4.47;1.20;;;;;;;;;;5011780;28;20165;-38
2024/01/17 08:37:53;;;;;;;4.95;1.15;;;;;;;;;;5011796;28;20026;-38
2024/01/17 08:40:20;;;;;;;5.00;0.90;;;;;;;;;;5011678;28;20116;-38
2024/01/17 08:42:47;;;;;;;5.80;1.00;;;;;;;;;;5011742;28;20559;-38
2024/01/17 08:45:17;;;;;;;2.22;0.80;;;;;;;;;;5011562;28;20037;-38
2024/01/17 08:47:45;;;;;;;3.55;1.00;;;;;;;;;;5011717;28;20127;-38
2024/01/17 08:50:15;;;;;;;7.75;1.02;;;;;;;;;;5011508;28;20034;-38
2024/01/17 08:52:41;;;;;;;5.95;1.15;;;;;;;;;;5011650;28;20086;-38
2024/01/17 08:55:10;;;;;;;5.68;1.30;;;;;;;;;;5011662;28;20100;-38
2024/01/17 08:57:37;;;;;;;8.70;1.33;;;;;;;;;;5011651;28;20500;-38
2024/01/17 09:00:08;;;;;;;6.45;1.10;;;;;;;;;;5011291;28;20522;-38
2024/01/17 09:02:35;;;;;;;6.80;1.10;;;;;;;;;;5015180;28;20026;-38
2024/01/17 09:05:02;;;;;;;9.48;1.35;;;;;;;;;;5015341;28;20025;-38
2024/01/17 09:07:29;;;;;;;8.02;1.30;;;;;;;;;;5015395;28;20109;-37
2024/01/17 09:09:56;;;;;;;5.95;1.17;;;;;;;;;;5015091;28;20109;-38
2024/01/17 09:12:23;;;;;;;11.85;1.65;;;;;;;;;;5015264;28;20530;-38
2024/01/17 09:14:50;;;;;;;12.60;2.35;;;;;;;;;;5015244;28;20072;-38
2024/01/17 09:17:18;;;;;;;21.25;2.33;;;;;;;;;;5015153;28;20030;-38
2024/01/17 09:19:46;;;;;;;26.38;3.60;;;;;;;;;;5014931;28;20377;-38
2024/01/17 09:22:13;;;;;;;23.25;3.53;;;;;;;;;;5014998;28;20057;-38
2024/01/17 09:24:41;;;;;;;31.52;4.13;;;;;;;;;;5015010;28;20068;-38
2024/01/17 09:27:08;;;;;;;23.40;2.90;;;;;;;;;;5014889;28;20061;-38
2024/01/17 09:29:35;;;;;;;23.60;3.03;;;;;;;;;;5014808;28;20056;-38
2024/01/17 09:32:03;;;;;;;18.45;2.83;;;;;;;;;;5015002;28;20061;-38
2024/01/17 09:34:32;;;;;;;20.83;2.88;;;;;;;;;;5014915;28;20030;-38
2024/01/17 09:37:02;;;;;;;27.77;3.03;;;;;;;;;;5014794;28;20096;-38
2024/01/17 09:39:30;;;;;;;17.05;3.08;;;;;;;;;;5014550;28;20041;-38
2024/01/17 09:42:00;;;;;;;29.85;3.38;;;;;;;;;;5014743;28;20056;-38
2024/01/17 09:44:30;;;;;;;27.20;3.35;;;;;;;;;;5014697;28;20029;-38
2024/01/17 09:47:01;;;;;;;24.00;3.13;;;;;;;;;;5014653;28;20030;-38
2024/01/17 09:49:28;;;;;;;27.20;3.35;;;;;;;;;;5014438;28;20457;-38
2024/01/17 09:51:55;;;;;;;26.25;3.20;;;;;;;;;;5014617;28;20026;-38
2024/01/17 09:54:25;;;;;;;23.77;3.60;;;;;;;;;;5014479;28;20085;-38
2024/01/17 09:56:56;;;;;;;25.67;3.38;;;;;;;;;;5014482;28;20079;-38
2024/01/17 09:59:33;;;;;;;31.83;3.90;;;;;;;;;;5014275;28;20025;-38
2024/01/17 10:02:01;;;;;;;32.58;3.88;;;;;;;;;;5014366;28;20163;-37
2024/01/17 10:04:28;;;;;;;29.10;3.75;;;;;;;;;;5014217;28;20083;-38
2024/01/17 10:06:55;;;;;;;30.65;4.28;;;;;;;;;;5014154;28;20064;-38
2024/01/17 10:09:24;;;;;;;33.00;4.05;;;;;;;;;;5013938;28;20030;-38
2024/01/17 10:11:51;;;;;;;32.22;3.90;;;;;;;;;;5013755;28;20065;-38
2024/01/17 10:14:18;;;;;;;29.00;3.47;;;;;;;;;;5013604;28;20112;-37
2024/01/17 10:16:47;;;;;;;31.73;4.30;;;;;;;;;;5014012;28;20060;-38
2024/01/17 10:19:15;;;;;;;42.00;4.20;;;;;;;;;;5013959;28;20030;-38
2024/01/17 10:21:43;;;;;;;30.35;3.95;;;;;;;;;;5013892;28;20037;-38
2024/01/17 10:24:11;;;;;;;24.63;3.40;;;;;;;;;;5013970;28;20053;-38
2024/01/17 10:26:42;;;;;;;27.90;3.33;;;;;;;;;;5013677;28;20184;-38
2024/01/17 10:29:12;;;;;;;11.57;2.20;;;;;;;;;;5013720;28;20048;-38
2024/01/17 10:31:40;;;;;;;12.05;2.10;;;;;;;;;;5013771;28;20034;-38
2024/01/17 10:34:08;;;;;;;11.10;1.65;;;;;;;;;;5013788;28;20435;-38
2024/01/17 10:36:44;;;;;;;17.10;2.08;;;;;;;;;;5013703;28;20054;-37
2024/01/17 10:39:11;;;;;;;14.80;1.80;;;;;;;;;;5013536;28;20030;-38
2024/01/17 10:41:49;;;;;;;11.30;1.98;;;;;;;;;;5013544;28;20033;-38
2024/01/17 10:44:18;;;;;;;9.32;1.08;;;;;;;;;;5013648;28;20105;-38
2024/01/17 10:46:50;;;;;;;8.68;1.30;;;;;;;;;;5013371;28;20434;-38
2024/01/17 10:49:18;;;;;;;8.32;1.10;;;;;;;;;;5013267;28;20079;-38
2024/01/17 10:52:14;;;;;;;9.20;1.20;;;;;;;;;;5013424;28;20030;-38
2024/01/17 10:54:44;;;;;;;5.53;1.20;;;;;;;;;;5004751;28;20073;-38
2024/01/17 10:57:11;;;;;;;11.30;1.30;;;;;;;;;;5013293;28;20037;-38
2024/01/17 10:59:42;;;;;;;7.70;1.42;;;;;;;;;;5013046;28;20167;-38
2024/01/17 11:02:16;;;;;;;11.95;1.30;;;;;;;;;;5013216;28;20400;-38
2024/01/17 11:04:46;;;;;;;12.30;1.15;;;;;;;;;;5013143;28;20034;-38
2024/01/17 11:07:13;;;;;;;11.68;1.50;;;;;;;;;;5012972;28;20481;-38
2024/01/17 11:09:42;;;;;;;7.47;1.10;;;;;;;;;;5012966;28;20084;-38
2024/01/17 11:12:09;;;;;;;5.05;1.00;;;;;;;;;;5013087;28;20030;-38
2024/01/17 11:14:37;;;;;;;6.45;1.10;;;;;;;;;;5012830;28;20026;-38
2024/01/17 11:17:05;;;;;;;7.07;0.90;;;;;;;;;;5012985;28;20033;-38
2024/01/17 11:19:33;;;;;;;6.03;0.90;;;;;;;;;;5012768;28;20443;-38
2024/01/17 11:22:04;;;;;;;3.72;1.02;;;;;;;;;;5012899;28;20034;-38
2024/01/17 11:24:37;;;;;;;6.95;1.10;;;;;;;;;;5012680;28;20036;-38
2024/01/17 11:27:07;;;;;;;2.78;0.73;;;;;;;;;;4994966;28;20060;-38
2024/01/17 11:29:34;;;;;;;4.82;0.90;;;;;;;;;;5012576;28;20365;-38
2024/01/17 11:32:21;;;;;;;6.35;0.93;;;;;;;;;;4994580;28;20092;-38
2024/01/17 11:34:51;;;;;;;4.22;1.17;;;;;;;;;;5010940;28;20034;-38
2024/01/17 11:37:33;;;;;;;4.40;0.90;;;;;;;;;;5009614;28;20029;-38
2024/01/17 11:40:04;;;;;;;10.70;1.42;;;;;;;;;;5009713;28;20508;-38
2024/01/17 11:42:32;;;;;;;4.88;0.80;;;;;;;;;;5011058;28;20060;-38
2024/01/17 11:44:59;;;;;;;8.23;1.15;;;;;;;;;;5011137;28;20483;-37
2024/01/17 11:47:26;;;;;;;13.05;1.33;;;;;;;;;;5011296;28;20145;-37
2024/01/17 11:49:56;;;;;;;14.50;1.42;;;;;;;;;;5010876;28;20038;-38
2024/01/17 11:52:36;;;;;;;17.70;1.88;;;;;;;;;;5011474;28;20034;-38
2024/01/17 11:55:03;;;;;;;36.17;3.00;;;;;;;;;;5009778;28;20063;-37
2024/01/17 11:57:34;;;;;;;53.78;4.13;;;;;;;;;;5011390;28;20034;-38
2024/01/17 12:00:08;;;;;;;33.38;2.85;;;;;;;;;;5009499;28;20045;-38
2024/01/17 12:02:39;;;;;;;40.85;3.50;;;;;;;;;;4991507;28;20455;-38
2024/01/17 12:05:07;;;;;;;20.52;2.60;;;;;;;;;;5010758;28;20040;-38
2024/01/17 12:07:40;;;;;;;18.08;2.53;;;;;;;;;;5006237;28;20034;-40
2024/01/17 12:10:09;;;;;;;20.02;2.92;;;;;;;;;;5010602;28;20037;-38
2024/01/17 12:12:43;;;;;;;19.10;2.38;;;;;;;;;;5010215;28;20120;-38
2024/01/17 12:15:10;;;;;;;17.30;1.90;;;;;;;;;;5010574;28;20478;-38
2024/01/17 12:17:41;;;;;;;21.73;2.47;;;;;;;;;;5010462;28;20036;-38
2024/01/17 12:20:08;;;;;;;21.58;2.28;;;;;;;;;;5010532;28;20092;-38
2024/01/17 12:22:35;;;;;;;20.00;2.75;;;;;;;;;;5010469;28;20033;-38
2024/01/17 12:25:02;;;;;;;20.45;2.65;;;;;;;;;;5010503;28;20061;-38
2024/01/17 12:27:33;;;;;;;42.03;4.05;;;;;;;;;;5010998;28;20554;-38
2024/01/17 12:30:04;;;;;;;34.03;3.30;;;;;;;;;;5010865;28;20049;-38
2024/01/17 12:32:32;;;;;;;46.85;3.58;;;;;;;;;;5008810;28;20033;-38
2024/01/17 12:34:59;;;;;;;32.40;3.75;;;;;;;;;;5011131;28;20042;-38
2024/01/17 12:37:30;;;;;;;28.35;3.15;;;;;;;;;;5015051;28;20103;-38
2024/01/17 12:39:57;;;;;;;32.05;2.45;;;;;;;;;;5017391;28;20084;-38
2024/01/17 12:42:23;;;;;;;30.50;2.53;;;;;;;;;;5017559;28;20044;-37
2024/01/17 12:44:51;;;;;;;18.25;2.17;;;;;;;;;;5017703;28;20030;-37
2024/01/17 12:47:18;;;;;;;22.65;1.98;;;;;;;;;;5017950;28;20041;-37
2024/01/17 12:49:48;;;;;;;14.95;2.22;;;;;;;;;;5018054;28;20041;-37
2024/01/17 12:52:16;;;;;;;34.10;2.70;;;;;;;;;;5018279;28;20034;-37
2024/01/17 12:54:43;;;;;;;37.65;3.15;;;;;;;;;;5018353;28;20562;-37
2024/01/17 12:57:11;;;;;;;47.45;3.85;;;;;;;;;;5018104;28;20431;-37
2024/01/17 12:59:38;;;;;;;43.50;3.30;;;;;;;;;;5017966;28;20049;-37
2024/01/17 13:02:14;;;;;;;39.72;3.38;;;;;;;;;;5000346;28;20064;-37
2024/01/17 13:04:41;;;;;;;36.60;2.97;;;;;;;;;;5018038;28;20037;-37
2024/01/17 13:07:08;;;;;;;36.10;2.83;;;;;;;;;;5018140;28;20399;-37
2024/01/17 13:09:35;;;;;;;32.42;2.25;;;;;;;;;;5017931;28;20038;-38
2024/01/17 13:12:05;;;;;;;24.85;2.10;;;;;;;;;;5018055;28;20034;-37
2024/01/17 13:14:33;;;;;;;22.50;2.08;;;;;;;;;;5018119;28;20087;-37
2024/01/17 13:17:00;;;;;;;18.23;1.42;;;;;;;;;;5017848;28;20033;-37
2024/01/17 13:19:29;;;;;;;16.17;1.83;;;;;;;;;;5017861;28;20030;-37
2024/01/17 13:21:56;;;;;;;21.75;2.00;;;;;;;;;;5017872;28;20105;-37
2024/01/17 13:24:23;;;;;;;35.08;2.13;;;;;;;;;;5018008;28;20049;-37
2024/01/17 13:26:50;;;;;;;27.38;2.60;;;;;;;;;;4996897;28;20108;-37
2024/01/17 13:29:17;;;;;;;34.90;2.53;;;;;;;;;;4998117;28;20488;-37
2024/01/17 13:31:45;;;;;;;38.25;2.83;;;;;;;;;;4998179;28;20544;-37
2024/01/17 13:34:12;;;;;;;34.22;2.75;;;;;;;;;;4998283;28;20125;-37
2024/01/17 13:36:39;;;;;;;47.47;2.72;;;;;;;;;;4998276;28;20023;-37
2024/01/17 13:39:09;;;;;;;28.58;2.80;;;;;;;;;;4998188;28;20476;-37
2024/01/17 13:41:36;;;;;;;26.42;2.38;;;;;;;;;;4998070;28;20041;-37
2024/01/17 13:44:03;;;;;;;15.25;1.80;;;;;;;;;;4998279;28;20084;-38
2024/01/17 13:46:30;;;;;;;37.03;2.58;;;;;;;;;;4998125;28;20089;-37
2024/01/17 13:49:00;;;;;;;28.95;2.67;;;;;;;;;;4993883;28;20121;-37
2024/01/17 13:51:31;;;;;;;24.73;2.58;;;;;;;;;;4994929;28;20503;-37
2024/01/17 13:54:04;;;;;;;24.70;2.07;;;;;;;;;;4994966;28;20041;-37
2024/01/17 13:56:31;;;;;;;23.10;2.88;;;;;;;;;;4994973;28;20038;-37
2024/01/17 13:58:58;;;;;;;25.40;2.05;;;;;;;;;;4994933;28;20038;-37
2024/01/17 14:01:25;;;;;;;19.23;2.10;;;;;;;;;;4994819;28;20033;-37
2024/01/17 14:03:52;;;;;;;26.92;2.63;;;;;;;;;;4994860;28;20757;-37
2024/01/17 14:06:20;;;;;;;23.77;2.55;;;;;;;;;;4994675;28;20030;-37
2024/01/17 14:08:47;;;;;;;28.48;1.90;;;;;;;;;;4994616;28;20030;-37
2024/01/17 14:11:13;;;;;;;40.10;2.58;;;;;;;;;;4994660;28;20109;-37
2024/01/17 14:13:41;;;;;;;16.30;1.98;;;;;;;;;;4994580;28;20037;-37
2024/01/17 14:16:08;;;;;;;23.20;1.50;;;;;;;;;;4994649;28;20022;-37
2024/01/17 14:18:35;;;;;;;22.27;1.83;;;;;;;;;;4994454;28;20053;-38
2024/01/17 14:21:02;;;;;;;27.13;2.53;;;;;;;;;;4994465;28;20030;-37
2024/01/17 14:23:29;;;;;;;29.10;2.53;;;;;;;;;;4994513;28;20034;-38
2024/01/17 14:25:56;;;;;;;25.17;2.42;;;;;;;;;;4994424;28;20054;-37
2024/01/17 14:28:23;;;;;;;20.00;1.92;;;;;;;;;;5013481;28;20053;-37
2024/01/17 14:30:50;;;;;;;11.18;1.75;;;;;;;;;;5013737;28;20045;-37
2024/01/17 14:33:19;;;;;;;21.83;1.60;;;;;;;;;;5013877;28;20104;-37
2024/01/17 14:35:49;;;;;;;23.13;1.92;;;;;;;;;;5013786;28;20037;-37
2024/01/17 14:38:16;;;;;;;17.88;1.50;;;;;;;;;;5013616;28;20032;-37
2024/01/17 14:40:43;;;;;;;14.80;2.00;;;;;;;;;;5013451;28;20030;-37